sensor_id;sensor_type;location;lat;lon;timestamp;P1;durP1;ratioP1;P2;durP2;ratioP2
59788;SDS011;47353;51.614;5.530;2022-11-20T00:02:14;27.67;;;13.90;;
59788;SDS011;47353;51.614;5.530;2022-11-20T00:04:40;27.07;;;14.80;;
59788;SDS011;47353;51.614;5.530;2022-11-20T00:07:05;28.07;;;15.10;;
59788;SDS011;47353;51.614;5.530;2022-11-20T00:09:30;27.73;;;14.60;;
59788;SDS011;47353;51.614;5.530;2022-11-20T00:11:56;28.10;;;14.63;;
59788;SDS011;47353;51.614;5.530;2022-11-20T00:14:21;30.63;;;14.67;;
59788;SDS011;47353;51.614;5.530;2022-11-20T00:16:46;28.37;;;15.03;;
59788;SDS011;47353;51.614;5.530;2022-11-20T00:19:12;27.47;;;14.73;;
59788;SDS011;47353;51.614;5.530;2022-11-20T00:21:37;28.07;;;14.27;;
59788;SDS011;47353;51.614;5.530;2022-11-20T00:24:03;28.07;;;14.30;;
59788;SDS011;47353;51.614;5.530;2022-11-20T00:26:28;30.23;;;15.50;;
59788;SDS011;47353;51.614;5.530;2022-11-20T00:28:56;27.93;;;15.07;;
59788;SDS011;47353;51.614;5.530;2022-11-20T00:31:23;28.47;;;15.27;;
59788;SDS011;47353;51.614;5.530;2022-11-20T00:33:49;26.37;;;14.27;;
59788;SDS011;47353;51.614;5.530;2022-11-20T00:36:15;29.97;;;15.33;;
59788;SDS011;47353;51.614;5.530;2022-11-20T00:38:42;31.67;;;15.77;;
59788;SDS011;47353;51.614;5.530;2022-11-20T00:41:10;30.07;;;15.30;;
59788;SDS011;47353;51.614;5.530;2022-11-20T00:43:37;28.87;;;15.07;;
59788;SDS011;47353;51.614;5.530;2022-11-20T00:46:10;26.10;;;14.27;;
59788;SDS011;47353;51.614;5.530;2022-11-20T00:48:38;28.23;;;15.13;;
59788;SDS011;47353;51.614;5.530;2022-11-20T00:51:04;29.50;;;15.73;;
59788;SDS011;47353;51.614;5.530;2022-11-20T00:53:30;28.13;;;14.37;;
59788;SDS011;47353;51.614;5.530;2022-11-20T00:55:56;27.53;;;13.97;;
59788;SDS011;47353;51.614;5.530;2022-11-20T00:58:22;28.93;;;14.27;;
59788;SDS011;47353;51.614;5.530;2022-11-20T01:00:49;28.37;;;14.30;;
59788;SDS011;47353;51.614;5.530;2022-11-20T01:03:15;26.50;;;14.30;;
59788;SDS011;47353;51.614;5.530;2022-11-20T01:05:41;28.67;;;15.10;;
59788;SDS011;47353;51.614;5.530;2022-11-20T01:08:06;29.30;;;15.00;;
59788;SDS011;47353;51.614;5.530;2022-11-20T01:10:32;28.77;;;15.40;;
59788;SDS011;47353;51.614;5.530;2022-11-20T01:12:57;34.50;;;16.03;;
59788;SDS011;47353;51.614;5.530;2022-11-20T01:15:42;28.73;;;15.30;;
59788;SDS011;47353;51.614;5.530;2022-11-20T01:18:07;27.40;;;15.80;;
59788;SDS011;47353;51.614;5.530;2022-11-20T01:20:36;30.60;;;15.73;;
59788;SDS011;47353;51.614;5.530;2022-11-20T01:23:02;28.53;;;15.77;;
59788;SDS011;47353;51.614;5.530;2022-11-20T01:25:28;27.73;;;15.27;;
59788;SDS011;47353;51.614;5.530;2022-11-20T01:27:53;30.17;;;15.77;;
59788;SDS011;47353;51.614;5.530;2022-11-20T01:30:19;33.10;;;16.20;;
59788;SDS011;47353;51.614;5.530;2022-11-20T01:32:44;30.93;;;16.40;;
59788;SDS011;47353;51.614;5.530;2022-11-20T01:35:10;31.60;;;16.43;;
59788;SDS011;47353;51.614;5.530;2022-11-20T01:37:36;29.10;;;15.67;;
59788;SDS011;47353;51.614;5.530;2022-11-20T01:40:01;31.10;;;15.93;;
59788;SDS011;47353;51.614;5.530;2022-11-20T01:42:27;36.23;;;17.37;;
59788;SDS011;47353;51.614;5.530;2022-11-20T01:48:14;32.47;;;16.70;;
59788;SDS011;47353;51.614;5.530;2022-11-20T01:50:40;30.50;;;15.97;;
59788;SDS011;47353;51.614;5.530;2022-11-20T01:53:08;32.80;;;17.57;;
59788;SDS011;47353;51.614;5.530;2022-11-20T01:55:39;34.63;;;18.47;;
59788;SDS011;47353;51.614;5.530;2022-11-20T01:58:08;36.30;;;17.43;;
59788;SDS011;47353;51.614;5.530;2022-11-20T02:00:34;36.43;;;18.07;;
59788;SDS011;47353;51.614;5.530;2022-11-20T02:03:01;33.40;;;17.27;;
59788;SDS011;47353;51.614;5.530;2022-11-20T02:08:14;34.87;;;17.67;;
59788;SDS011;47353;51.614;5.530;2022-11-20T02:10:41;33.53;;;17.80;;
59788;SDS011;47353;51.614;5.530;2022-11-20T02:13:06;39.43;;;18.30;;
59788;SDS011;47353;51.614;5.530;2022-11-20T02:15:51;34.30;;;17.77;;
59788;SDS011;47353;51.614;5.530;2022-11-20T02:18:17;31.73;;;17.03;;
59788;SDS011;47353;51.614;5.530;2022-11-20T02:20:45;33.07;;;17.13;;
59788;SDS011;47353;51.614;5.530;2022-11-20T02:23:21;33.53;;;17.63;;
59788;SDS011;47353;51.614;5.530;2022-11-20T02:25:53;34.87;;;17.77;;
59788;SDS011;47353;51.614;5.530;2022-11-20T02:28:20;38.30;;;17.97;;
59788;SDS011;47353;51.614;5.530;2022-11-20T02:30:45;33.17;;;17.00;;
59788;SDS011;47353;51.614;5.530;2022-11-20T02:33:11;32.13;;;16.27;;
59788;SDS011;47353;51.614;5.530;2022-11-20T02:35:41;31.00;;;16.67;;
59788;SDS011;47353;51.614;5.530;2022-11-20T02:38:09;31.13;;;16.77;;
59788;SDS011;47353;51.614;5.530;2022-11-20T02:40:35;32.07;;;16.70;;
59788;SDS011;47353;51.614;5.530;2022-11-20T02:43:00;31.03;;;17.13;;
59788;SDS011;47353;51.614;5.530;2022-11-20T02:45:25;32.00;;;16.67;;
59788;SDS011;47353;51.614;5.530;2022-11-20T02:47:51;30.27;;;16.07;;
59788;SDS011;47353;51.614;5.530;2022-11-20T02:50:17;34.13;;;16.57;;
59788;SDS011;47353;51.614;5.530;2022-11-20T02:52:42;31.70;;;15.50;;
59788;SDS011;47353;51.614;5.530;2022-11-20T02:55:08;29.10;;;15.20;;
59788;SDS011;47353;51.614;5.530;2022-11-20T02:57:33;30.77;;;15.57;;
59788;SDS011;47353;51.614;5.530;2022-11-20T02:59:59;29.50;;;14.63;;
59788;SDS011;47353;51.614;5.530;2022-11-20T03:02:25;31.87;;;15.67;;
59788;SDS011;47353;51.614;5.530;2022-11-20T03:04:50;29.80;;;15.10;;
59788;SDS011;47353;51.614;5.530;2022-11-20T03:07:15;27.40;;;14.60;;
59788;SDS011;47353;51.614;5.530;2022-11-20T03:09:41;28.57;;;14.97;;
59788;SDS011;47353;51.614;5.530;2022-11-20T03:12:06;30.40;;;15.93;;
59788;SDS011;47353;51.614;5.530;2022-11-20T03:14:32;33.43;;;15.60;;
59788;SDS011;47353;51.614;5.530;2022-11-20T03:16:57;29.27;;;15.37;;
59788;SDS011;47353;51.614;5.530;2022-11-20T03:19:23;32.27;;;16.57;;
59788;SDS011;47353;51.614;5.530;2022-11-20T03:21:48;30.57;;;15.77;;
59788;SDS011;47353;51.614;5.530;2022-11-20T03:24:14;33.13;;;16.50;;
59788;SDS011;47353;51.614;5.530;2022-11-20T03:26:40;30.77;;;15.23;;
59788;SDS011;47353;51.614;5.530;2022-11-20T03:29:06;29.03;;;15.10;;
59788;SDS011;47353;51.614;5.530;2022-11-20T03:31:33;35.10;;;17.70;;
59788;SDS011;47353;51.614;5.530;2022-11-20T03:34:00;31.03;;;16.40;;
59788;SDS011;47353;51.614;5.530;2022-11-20T03:36:27;35.30;;;16.90;;
59788;SDS011;47353;51.614;5.530;2022-11-20T03:38:54;33.17;;;16.50;;
59788;SDS011;47353;51.614;5.530;2022-11-20T03:41:22;34.37;;;16.77;;
59788;SDS011;47353;51.614;5.530;2022-11-20T03:43:50;31.27;;;16.37;;
59788;SDS011;47353;51.614;5.530;2022-11-20T03:46:25;31.60;;;16.60;;
59788;SDS011;47353;51.614;5.530;2022-11-20T03:48:51;35.20;;;17.60;;
59788;SDS011;47353;51.614;5.530;2022-11-20T03:51:21;27.30;;;15.40;;
59788;SDS011;47353;51.614;5.530;2022-11-20T03:53:49;30.50;;;16.40;;
59788;SDS011;47353;51.614;5.530;2022-11-20T03:56:16;32.67;;;16.40;;
59788;SDS011;47353;51.614;5.530;2022-11-20T03:58:43;35.13;;;17.23;;
59788;SDS011;47353;51.614;5.530;2022-11-20T04:01:10;33.67;;;17.03;;
59788;SDS011;47353;51.614;5.530;2022-11-20T04:03:38;28.63;;;16.00;;
59788;SDS011;47353;51.614;5.530;2022-11-20T04:06:06;29.43;;;16.00;;
59788;SDS011;47353;51.614;5.530;2022-11-20T04:08:33;32.63;;;16.70;;
59788;SDS011;47353;51.614;5.530;2022-11-20T04:11:09;38.93;;;17.13;;
59788;SDS011;47353;51.614;5.530;2022-11-20T04:13:39;34.13;;;17.30;;
59788;SDS011;47353;51.614;5.530;2022-11-20T04:16:05;34.07;;;16.37;;
59788;SDS011;47353;51.614;5.530;2022-11-20T04:18:32;31.97;;;16.17;;
59788;SDS011;47353;51.614;5.530;2022-11-20T04:20:58;33.47;;;16.77;;
59788;SDS011;47353;51.614;5.530;2022-11-20T04:23:24;32.50;;;15.70;;
59788;SDS011;47353;51.614;5.530;2022-11-20T04:25:50;33.50;;;16.50;;
59788;SDS011;47353;51.614;5.530;2022-11-20T04:28:15;31.43;;;16.57;;
59788;SDS011;47353;51.614;5.530;2022-11-20T04:30:41;30.07;;;15.87;;
59788;SDS011;47353;51.614;5.530;2022-11-20T04:33:06;32.17;;;16.47;;
59788;SDS011;47353;51.614;5.530;2022-11-20T04:35:35;30.37;;;16.13;;
59788;SDS011;47353;51.614;5.530;2022-11-20T04:38:01;33.53;;;16.97;;
59788;SDS011;47353;51.614;5.530;2022-11-20T04:40:27;32.50;;;16.43;;
59788;SDS011;47353;51.614;5.530;2022-11-20T04:42:53;33.73;;;17.03;;
59788;SDS011;47353;51.614;5.530;2022-11-20T04:45:19;29.20;;;15.70;;
59788;SDS011;47353;51.614;5.530;2022-11-20T04:47:44;29.80;;;15.77;;
59788;SDS011;47353;51.614;5.530;2022-11-20T04:50:10;32.73;;;16.27;;
59788;SDS011;47353;51.614;5.530;2022-11-20T04:52:35;35.00;;;16.83;;
59788;SDS011;47353;51.614;5.530;2022-11-20T04:55:01;27.87;;;15.40;;
59788;SDS011;47353;51.614;5.530;2022-11-20T04:57:26;29.60;;;16.37;;
59788;SDS011;47353;51.614;5.530;2022-11-20T04:59:52;31.83;;;16.60;;
59788;SDS011;47353;51.614;5.530;2022-11-20T05:02:17;34.03;;;16.93;;
59788;SDS011;47353;51.614;5.530;2022-11-20T05:04:43;35.90;;;17.87;;
59788;SDS011;47353;51.614;5.530;2022-11-20T05:07:08;36.63;;;17.70;;
59788;SDS011;47353;51.614;5.530;2022-11-20T05:09:33;33.37;;;16.73;;
59788;SDS011;47353;51.614;5.530;2022-11-20T05:11:59;32.07;;;16.93;;
59788;SDS011;47353;51.614;5.530;2022-11-20T05:14:24;33.00;;;16.30;;
59788;SDS011;47353;51.614;5.530;2022-11-20T05:16:50;35.60;;;17.67;;
59788;SDS011;47353;51.614;5.530;2022-11-20T05:19:15;31.53;;;15.43;;
59788;SDS011;47353;51.614;5.530;2022-11-20T05:21:40;32.33;;;16.80;;
59788;SDS011;47353;51.614;5.530;2022-11-20T05:24:06;31.03;;;16.50;;
59788;SDS011;47353;51.614;5.530;2022-11-20T05:26:32;33.27;;;16.80;;
59788;SDS011;47353;51.614;5.530;2022-11-20T05:28:57;31.53;;;17.17;;
59788;SDS011;47353;51.614;5.530;2022-11-20T05:31:23;35.77;;;17.87;;
59788;SDS011;47353;51.614;5.530;2022-11-20T05:33:50;32.67;;;16.67;;
59788;SDS011;47353;51.614;5.530;2022-11-20T05:36:16;35.10;;;17.03;;
59788;SDS011;47353;51.614;5.530;2022-11-20T05:38:41;33.80;;;17.37;;
59788;SDS011;47353;51.614;5.530;2022-11-20T05:41:14;33.37;;;18.33;;
59788;SDS011;47353;51.614;5.530;2022-11-20T05:43:42;36.60;;;17.93;;
59788;SDS011;47353;51.614;5.530;2022-11-20T05:46:10;32.57;;;17.47;;
59788;SDS011;47353;51.614;5.530;2022-11-20T05:48:37;36.20;;;18.27;;
59788;SDS011;47353;51.614;5.530;2022-11-20T05:51:04;37.73;;;17.80;;
59788;SDS011;47353;51.614;5.530;2022-11-20T05:53:31;34.80;;;18.77;;
59788;SDS011;47353;51.614;5.530;2022-11-20T05:55:59;33.43;;;16.63;;
59788;SDS011;47353;51.614;5.530;2022-11-20T05:58:25;34.90;;;18.23;;
59788;SDS011;47353;51.614;5.530;2022-11-20T06:00:52;34.67;;;18.33;;
59788;SDS011;47353;51.614;5.530;2022-11-20T06:03:17;32.13;;;18.03;;
59788;SDS011;47353;51.614;5.530;2022-11-20T06:05:42;33.30;;;17.93;;
59788;SDS011;47353;51.614;5.530;2022-11-20T06:08:08;32.53;;;18.13;;
59788;SDS011;47353;51.614;5.530;2022-11-20T06:10:33;36.20;;;18.63;;
59788;SDS011;47353;51.614;5.530;2022-11-20T06:12:59;35.87;;;18.77;;
59788;SDS011;47353;51.614;5.530;2022-11-20T06:15:24;35.53;;;18.40;;
59788;SDS011;47353;51.614;5.530;2022-11-20T06:17:53;34.17;;;18.37;;
59788;SDS011;47353;51.614;5.530;2022-11-20T06:20:20;34.47;;;17.87;;
59788;SDS011;47353;51.614;5.530;2022-11-20T06:22:46;34.00;;;17.73;;
59788;SDS011;47353;51.614;5.530;2022-11-20T06:25:11;36.60;;;19.63;;
59788;SDS011;47353;51.614;5.530;2022-11-20T06:27:37;34.47;;;18.97;;
59788;SDS011;47353;51.614;5.530;2022-11-20T06:30:02;36.70;;;18.33;;
59788;SDS011;47353;51.614;5.530;2022-11-20T06:32:29;35.57;;;19.53;;
59788;SDS011;47353;51.614;5.530;2022-11-20T06:34:54;33.30;;;18.40;;
59788;SDS011;47353;51.614;5.530;2022-11-20T06:37:20;37.17;;;18.13;;
59788;SDS011;47353;51.614;5.530;2022-11-20T06:39:45;34.20;;;18.03;;
59788;SDS011;47353;51.614;5.530;2022-11-20T06:42:10;34.97;;;17.77;;
59788;SDS011;47353;51.614;5.530;2022-11-20T06:44:36;33.60;;;15.47;;
59788;SDS011;47353;51.614;5.530;2022-11-20T06:47:01;35.83;;;18.67;;
59788;SDS011;47353;51.614;5.530;2022-11-20T06:49:27;33.10;;;17.67;;
59788;SDS011;47353;51.614;5.530;2022-11-20T06:51:52;32.87;;;18.03;;
59788;SDS011;47353;51.614;5.530;2022-11-20T06:54:17;35.67;;;17.53;;
59788;SDS011;47353;51.614;5.530;2022-11-20T06:56:46;34.50;;;18.33;;
59788;SDS011;47353;51.614;5.530;2022-11-20T06:59:12;33.80;;;18.13;;
59788;SDS011;47353;51.614;5.530;2022-11-20T07:01:38;32.17;;;17.87;;
59788;SDS011;47353;51.614;5.530;2022-11-20T07:04:03;37.13;;;19.60;;
59788;SDS011;47353;51.614;5.530;2022-11-20T07:06:29;31.33;;;17.13;;
59788;SDS011;47353;51.614;5.530;2022-11-20T07:08:54;31.77;;;18.23;;
59788;SDS011;47353;51.614;5.530;2022-11-20T07:11:20;32.40;;;17.90;;
59788;SDS011;47353;51.614;5.530;2022-11-20T07:13:45;35.30;;;17.83;;
59788;SDS011;47353;51.614;5.530;2022-11-20T07:16:11;33.77;;;17.63;;
59788;SDS011;47353;51.614;5.530;2022-11-20T07:18:36;33.40;;;18.03;;
59788;SDS011;47353;51.614;5.530;2022-11-20T07:21:02;31.07;;;17.80;;
59788;SDS011;47353;51.614;5.530;2022-11-20T07:23:30;37.07;;;19.03;;
59788;SDS011;47353;51.614;5.530;2022-11-20T07:25:56;33.63;;;17.77;;
59788;SDS011;47353;51.614;5.530;2022-11-20T07:28:21;37.50;;;20.17;;
59788;SDS011;47353;51.614;5.530;2022-11-20T07:30:52;36.17;;;19.60;;
59788;SDS011;47353;51.614;5.530;2022-11-20T07:33:18;33.40;;;17.57;;
59788;SDS011;47353;51.614;5.530;2022-11-20T07:35:45;32.77;;;18.43;;
59788;SDS011;47353;51.614;5.530;2022-11-20T07:38:10;33.87;;;18.50;;
59788;SDS011;47353;51.614;5.530;2022-11-20T07:40:36;34.73;;;18.40;;
59788;SDS011;47353;51.614;5.530;2022-11-20T07:43:01;32.73;;;17.43;;
59788;SDS011;47353;51.614;5.530;2022-11-20T07:45:27;32.17;;;18.37;;
59788;SDS011;47353;51.614;5.530;2022-11-20T07:47:52;32.00;;;18.27;;
59788;SDS011;47353;51.614;5.530;2022-11-20T07:50:18;33.57;;;18.33;;
59788;SDS011;47353;51.614;5.530;2022-11-20T07:52:44;32.73;;;17.50;;
59788;SDS011;47353;51.614;5.530;2022-11-20T07:55:10;32.43;;;18.37;;
59788;SDS011;47353;51.614;5.530;2022-11-20T07:57:36;33.03;;;18.17;;
59788;SDS011;47353;51.614;5.530;2022-11-20T08:00:02;33.53;;;17.40;;
59788;SDS011;47353;51.614;5.530;2022-11-20T08:02:29;33.23;;;18.67;;
59788;SDS011;47353;51.614;5.530;2022-11-20T08:04:54;32.67;;;18.00;;
59788;SDS011;47353;51.614;5.530;2022-11-20T08:07:20;34.37;;;18.30;;
59788;SDS011;47353;51.614;5.530;2022-11-20T08:09:45;34.53;;;18.00;;
59788;SDS011;47353;51.614;5.530;2022-11-20T08:12:20;32.00;;;17.53;;
59788;SDS011;47353;51.614;5.530;2022-11-20T08:15:04;33.87;;;18.57;;
59788;SDS011;47353;51.614;5.530;2022-11-20T08:17:30;33.43;;;18.70;;
59788;SDS011;47353;51.614;5.530;2022-11-20T08:19:56;32.50;;;17.73;;
59788;SDS011;47353;51.614;5.530;2022-11-20T08:22:22;35.67;;;19.63;;
59788;SDS011;47353;51.614;5.530;2022-11-20T08:24:47;35.33;;;19.17;;
59788;SDS011;47353;51.614;5.530;2022-11-20T08:27:13;34.47;;;19.53;;
59788;SDS011;47353;51.614;5.530;2022-11-20T08:29:38;35.20;;;19.00;;
59788;SDS011;47353;51.614;5.530;2022-11-20T08:32:04;35.63;;;18.83;;
59788;SDS011;47353;51.614;5.530;2022-11-20T08:34:29;32.67;;;18.03;;
59788;SDS011;47353;51.614;5.530;2022-11-20T08:36:54;37.13;;;19.80;;
59788;SDS011;47353;51.614;5.530;2022-11-20T08:39:20;36.63;;;20.03;;
59788;SDS011;47353;51.614;5.530;2022-11-20T08:41:45;31.57;;;19.03;;
59788;SDS011;47353;51.614;5.530;2022-11-20T08:44:11;35.25;;;20.20;;
59788;SDS011;47353;51.614;5.530;2022-11-20T08:46:40;33.75;;;19.08;;
59788;SDS011;47353;51.614;5.530;2022-11-20T08:49:09;32.93;;;19.93;;
59788;SDS011;47353;51.614;5.530;2022-11-20T08:51:36;32.80;;;19.10;;
59788;SDS011;47353;51.614;5.530;2022-11-20T08:54:02;35.28;;;20.40;;
59788;SDS011;47353;51.614;5.530;2022-11-20T08:56:28;33.65;;;17.40;;
59788;SDS011;47353;51.614;5.530;2022-11-20T08:58:53;34.70;;;20.42;;
59788;SDS011;47353;51.614;5.530;2022-11-20T09:01:19;36.65;;;20.83;;
59788;SDS011;47353;51.614;5.530;2022-11-20T09:03:45;34.08;;;18.90;;
59788;SDS011;47353;51.614;5.530;2022-11-20T09:06:11;34.33;;;20.83;;
59788;SDS011;47353;51.614;5.530;2022-11-20T09:08:36;35.70;;;19.70;;
59788;SDS011;47353;51.614;5.530;2022-11-20T09:11:02;35.67;;;20.00;;
59788;SDS011;47353;51.614;5.530;2022-11-20T09:13:28;34.47;;;20.45;;
59788;SDS011;47353;51.614;5.530;2022-11-20T09:15:55;32.55;;;18.17;;
59788;SDS011;47353;51.614;5.530;2022-11-20T09:18:22;34.13;;;19.30;;
59788;SDS011;47353;51.614;5.530;2022-11-20T09:20:47;32.85;;;18.50;;
59788;SDS011;47353;51.614;5.530;2022-11-20T09:23:13;37.72;;;20.48;;
59788;SDS011;47353;51.614;5.530;2022-11-20T09:25:39;34.58;;;21.38;;
59788;SDS011;47353;51.614;5.530;2022-11-20T09:28:04;34.17;;;21.05;;
59788;SDS011;47353;51.614;5.530;2022-11-20T09:30:30;24.25;;;13.13;;
59788;SDS011;47353;51.614;5.530;2022-11-20T09:32:56;34.30;;;19.98;;
59788;SDS011;47353;51.614;5.530;2022-11-20T09:35:21;33.95;;;19.95;;
59788;SDS011;47353;51.614;5.530;2022-11-20T09:37:47;33.88;;;17.67;;
59788;SDS011;47353;51.614;5.530;2022-11-20T09:42:58;33.90;;;20.15;;
59788;SDS011;47353;51.614;5.530;2022-11-20T09:53:47;34.72;;;19.83;;
59788;SDS011;47353;51.614;5.530;2022-11-20T09:56:29;33.00;;;18.95;;
59788;SDS011;47353;51.614;5.530;2022-11-20T09:58:56;33.63;;;19.85;;
59788;SDS011;47353;51.614;5.530;2022-11-20T10:01:29;42.83;;;19.63;;
59788;SDS011;47353;51.614;5.530;2022-11-20T10:06:33;38.53;;;19.50;;
59788;SDS011;47353;51.614;5.530;2022-11-20T10:11:48;38.08;;;18.02;;
59788;SDS011;47353;51.614;5.530;2022-11-20T10:17:08;34.35;;;18.13;;
59788;SDS011;47353;51.614;5.530;2022-11-20T10:22:35;41.53;;;20.50;;
59788;SDS011;47353;51.614;5.530;2022-11-20T10:25:16;36.92;;;20.27;;
59788;SDS011;47353;51.614;5.530;2022-11-20T10:30:15;38.53;;;18.02;;
59788;SDS011;47353;51.614;5.530;2022-11-20T10:32:45;37.33;;;17.15;;
59788;SDS011;47353;51.614;5.530;2022-11-20T10:35:20;41.40;;;20.88;;
59788;SDS011;47353;51.614;5.530;2022-11-20T10:37:50;42.97;;;20.95;;
59788;SDS011;47353;51.614;5.530;2022-11-20T10:40:34;37.13;;;18.17;;
59788;SDS011;47353;51.614;5.530;2022-11-20T10:46:03;41.63;;;20.42;;
59788;SDS011;47353;51.614;5.530;2022-11-20T10:48:33;46.60;;;21.90;;
59788;SDS011;47353;51.614;5.530;2022-11-20T10:53:53;42.75;;;20.65;;
59788;SDS011;47353;51.614;5.530;2022-11-20T10:56:41;49.97;;;22.08;;
59788;SDS011;47353;51.614;5.530;2022-11-20T11:01:53;49.33;;;22.55;;
59788;SDS011;47353;51.614;5.530;2022-11-20T11:06:53;45.55;;;18.88;;
59788;SDS011;47353;51.614;5.530;2022-11-20T11:09:32;47.63;;;21.92;;
59788;SDS011;47353;51.614;5.530;2022-11-20T11:11:59;41.85;;;20.85;;
59788;SDS011;47353;51.614;5.530;2022-11-20T11:14:25;47.10;;;23.30;;
59788;SDS011;47353;51.614;5.530;2022-11-20T11:16:51;49.80;;;22.80;;
59788;SDS011;47353;51.614;5.530;2022-11-20T11:19:21;47.10;;;22.80;;
59788;SDS011;47353;51.614;5.530;2022-11-20T11:21:50;52.83;;;24.90;;
59788;SDS011;47353;51.614;5.530;2022-11-20T11:24:28;52.72;;;22.95;;
59788;SDS011;47353;51.614;5.530;2022-11-20T11:26:59;54.20;;;26.28;;
59788;SDS011;47353;51.614;5.530;2022-11-20T11:29:31;54.88;;;24.20;;
59788;SDS011;47353;51.614;5.530;2022-11-20T11:34:59;60.03;;;24.42;;
59788;SDS011;47353;51.614;5.530;2022-11-20T11:37:25;56.95;;;25.33;;
59788;SDS011;47353;51.614;5.530;2022-11-20T11:39:59;54.50;;;25.70;;
59788;SDS011;47353;51.614;5.530;2022-11-20T11:42:25;57.65;;;25.33;;
59788;SDS011;47353;51.614;5.530;2022-11-20T11:44:53;52.47;;;22.10;;
59788;SDS011;47353;51.614;5.530;2022-11-20T11:50:13;57.60;;;22.90;;
59788;SDS011;47353;51.614;5.530;2022-11-20T11:53:29;59.85;;;26.58;;
59788;SDS011;47353;51.614;5.530;2022-11-20T11:58:43;62.70;;;27.67;;
59788;SDS011;47353;51.614;5.530;2022-11-20T12:07:38;62.85;;;27.90;;
59788;SDS011;47353;51.614;5.530;2022-11-20T12:09:58;59.60;;;24.88;;
59788;SDS011;47353;51.614;5.530;2022-11-20T12:12:31;57.50;;;26.33;;
59788;SDS011;47353;51.614;5.530;2022-11-20T12:15:01;61.63;;;27.98;;
59788;SDS011;47353;51.614;5.530;2022-11-20T12:17:29;59.85;;;27.75;;
59788;SDS011;47353;51.614;5.530;2022-11-20T12:19:54;58.33;;;26.60;;
59788;SDS011;47353;51.614;5.530;2022-11-20T12:30:31;62.17;;;28.70;;
59788;SDS011;47353;51.614;5.530;2022-11-20T12:41:22;63.03;;;27.00;;
59788;SDS011;47353;51.614;5.530;2022-11-20T12:52:57;58.30;;;27.20;;
59788;SDS011;47353;51.614;5.530;2022-11-20T12:58:26;60.50;;;26.75;;
59788;SDS011;47353;51.614;5.530;2022-11-20T13:07:15;58.10;;;25.05;;
59788;SDS011;47353;51.614;5.530;2022-11-20T13:09:46;56.00;;;25.90;;
59788;SDS011;47353;51.614;5.530;2022-11-20T13:12:24;45.35;;;18.90;;
59788;SDS011;47353;51.614;5.530;2022-11-20T13:17:37;51.03;;;21.52;;
59788;SDS011;47353;51.614;5.530;2022-11-20T13:20:15;45.72;;;22.67;;
59788;SDS011;47353;51.614;5.530;2022-11-20T13:22:43;55.28;;;24.42;;
59788;SDS011;47353;51.614;5.530;2022-11-20T13:25:22;58.97;;;27.75;;
59788;SDS011;47353;51.614;5.530;2022-11-20T13:27:49;44.38;;;18.92;;
59788;SDS011;47353;51.614;5.530;2022-11-20T13:30:16;56.30;;;25.75;;
59788;SDS011;47353;51.614;5.530;2022-11-20T13:35:30;62.45;;;27.73;;
59788;SDS011;47353;51.614;5.530;2022-11-20T13:38:03;57.53;;;23.38;;
59788;SDS011;47353;51.614;5.530;2022-11-20T13:40:34;63.38;;;27.67;;
59788;SDS011;47353;51.614;5.530;2022-11-20T13:45:55;67.63;;;27.83;;
59788;SDS011;47353;51.614;5.530;2022-11-20T13:48:22;59.28;;;28.02;;
59788;SDS011;47353;51.614;5.530;2022-11-20T13:50:56;61.00;;;27.98;;
59788;SDS011;47353;51.614;5.530;2022-11-20T13:53:42;59.33;;;26.38;;
59788;SDS011;47353;51.614;5.530;2022-11-20T14:02:11;62.55;;;26.63;;
59788;SDS011;47353;51.614;5.530;2022-11-20T14:04:41;61.63;;;28.85;;
59788;SDS011;47353;51.614;5.530;2022-11-20T14:07:09;64.10;;;24.95;;
59788;SDS011;47353;51.614;5.530;2022-11-20T14:09:35;72.13;;;30.73;;
59788;SDS011;47353;51.614;5.530;2022-11-20T14:12:01;68.55;;;30.02;;
59788;SDS011;47353;51.614;5.530;2022-11-20T14:14:29;65.95;;;26.60;;
59788;SDS011;47353;51.614;5.530;2022-11-20T14:17:07;63.13;;;29.02;;
59788;SDS011;47353;51.614;5.530;2022-11-20T14:19:34;68.65;;;30.15;;
59788;SDS011;47353;51.614;5.530;2022-11-20T14:27:12;65.72;;;28.02;;
59788;SDS011;47353;51.614;5.530;2022-11-20T14:29:39;54.85;;;22.88;;
59788;SDS011;47353;51.614;5.530;2022-11-20T14:32:08;67.40;;;27.17;;
59788;SDS011;47353;51.614;5.530;2022-11-20T14:34:37;66.07;;;28.23;;
59788;SDS011;47353;51.614;5.530;2022-11-20T14:37:05;65.22;;;28.98;;
59788;SDS011;47353;51.614;5.530;2022-11-20T14:39:37;65.63;;;28.38;;
59788;SDS011;47353;51.614;5.530;2022-11-20T14:42:15;62.17;;;26.73;;
59788;SDS011;47353;51.614;5.530;2022-11-20T14:44:42;62.38;;;26.50;;
59788;SDS011;47353;51.614;5.530;2022-11-20T14:47:09;62.60;;;26.20;;
59788;SDS011;47353;51.614;5.530;2022-11-20T14:49:37;64.13;;;26.83;;
59788;SDS011;47353;51.614;5.530;2022-11-20T14:52:17;58.28;;;23.40;;
59788;SDS011;47353;51.614;5.530;2022-11-20T14:54:48;58.78;;;25.35;;
59788;SDS011;47353;51.614;5.530;2022-11-20T14:57:24;62.78;;;25.88;;
59788;SDS011;47353;51.614;5.530;2022-11-20T15:05:10;60.33;;;26.60;;
59788;SDS011;47353;51.614;5.530;2022-11-20T15:07:37;72.57;;;29.10;;
59788;SDS011;47353;51.614;5.530;2022-11-20T15:10:08;63.72;;;27.25;;
59788;SDS011;47353;51.614;5.530;2022-11-20T15:12:39;63.40;;;28.63;;
59788;SDS011;47353;51.614;5.530;2022-11-20T15:15:11;64.25;;;27.13;;
59788;SDS011;47353;51.614;5.530;2022-11-20T15:17:39;67.10;;;28.45;;
59788;SDS011;47353;51.614;5.530;2022-11-20T15:20:08;64.78;;;27.73;;
59788;SDS011;47353;51.614;5.530;2022-11-20T15:22:39;64.65;;;28.10;;
59788;SDS011;47353;51.614;5.530;2022-11-20T15:25:11;63.33;;;27.02;;
59788;SDS011;47353;51.614;5.530;2022-11-20T15:27:38;61.10;;;26.88;;
59788;SDS011;47353;51.614;5.530;2022-11-20T15:30:11;54.30;;;24.65;;
59788;SDS011;47353;51.614;5.530;2022-11-20T15:32:39;58.58;;;25.85;;
59788;SDS011;47353;51.614;5.530;2022-11-20T15:35:04;60.72;;;25.55;;
59788;SDS011;47353;51.614;5.530;2022-11-20T15:37:30;61.63;;;26.77;;
59788;SDS011;47353;51.614;5.530;2022-11-20T15:39:55;64.38;;;27.00;;
59788;SDS011;47353;51.614;5.530;2022-11-20T15:42:21;57.30;;;25.52;;
59788;SDS011;47353;51.614;5.530;2022-11-20T15:44:46;52.67;;;20.67;;
59788;SDS011;47353;51.614;5.530;2022-11-20T15:47:12;58.20;;;25.35;;
59788;SDS011;47353;51.614;5.530;2022-11-20T15:49:37;60.17;;;26.65;;
59788;SDS011;47353;51.614;5.530;2022-11-20T15:52:02;56.72;;;23.35;;
59788;SDS011;47353;51.614;5.530;2022-11-20T15:54:28;60.25;;;27.23;;
59788;SDS011;47353;51.614;5.530;2022-11-20T15:56:53;59.67;;;27.05;;
59788;SDS011;47353;51.614;5.530;2022-11-20T15:59:19;59.85;;;26.20;;
59788;SDS011;47353;51.614;5.530;2022-11-20T16:01:44;59.70;;;27.42;;
59788;SDS011;47353;51.614;5.530;2022-11-20T16:04:14;60.00;;;23.98;;
59788;SDS011;47353;51.614;5.530;2022-11-20T16:06:41;50.78;;;24.40;;
59788;SDS011;47353;51.614;5.530;2022-11-20T16:09:07;57.17;;;23.65;;
59788;SDS011;47353;51.614;5.530;2022-11-20T16:11:33;56.53;;;25.70;;
59788;SDS011;47353;51.614;5.530;2022-11-20T16:14:01;56.97;;;27.17;;
59788;SDS011;47353;51.614;5.530;2022-11-20T16:16:45;56.53;;;25.48;;
59788;SDS011;47353;51.614;5.530;2022-11-20T16:19:11;60.25;;;25.60;;
59788;SDS011;47353;51.614;5.530;2022-11-20T16:21:38;53.95;;;24.23;;